sensor_id;sensor_type;location;lat;lon;timestamp;P1;durP1;ratioP1;P2;durP2;ratioP2
20649;SDS011;10484;48.736;9.332;2023-07-20T00:00:45;4.70;;;2.20;;
20649;SDS011;10484;48.736;9.332;2023-07-20T00:03:11;2.37;;;1.93;;
20649;SDS011;10484;48.736;9.332;2023-07-20T00:05:41;3.43;;;2.00;;
20649;SDS011;10484;48.736;9.332;2023-07-20T00:08:12;3.17;;;2.30;;
20649;SDS011;10484;48.736;9.332;2023-07-20T00:10:39;2.07;;;1.90;;
20649;SDS011;10484;48.736;9.332;2023-07-20T00:13:05;3.03;;;1.57;;
20649;SDS011;10484;48.736;9.332;2023-07-20T00:15:31;3.60;;;1.90;;
20649;SDS011;10484;48.736;9.332;2023-07-20T00:17:56;2.60;;;1.87;;
20649;SDS011;10484;48.736;9.332;2023-07-20T00:20:23;3.20;;;2.37;;
20649;SDS011;10484;48.736;9.332;2023-07-20T00:22:49;2.37;;;2.17;;
20649;SDS011;10484;48.736;9.332;2023-07-20T00:25:16;2.30;;;2.10;;
20649;SDS011;10484;48.736;9.332;2023-07-20T00:27:41;3.23;;;1.90;;
20649;SDS011;10484;48.736;9.332;2023-07-20T00:30:07;2.77;;;2.03;;
20649;SDS011;10484;48.736;9.332;2023-07-20T00:32:33;2.73;;;2.37;;
20649;SDS011;10484;48.736;9.332;2023-07-20T00:34:59;2.17;;;1.97;;
20649;SDS011;10484;48.736;9.332;2023-07-20T00:37:24;3.13;;;2.27;;
20649;SDS011;10484;48.736;9.332;2023-07-20T00:39:50;1.80;;;1.70;;
20649;SDS011;10484;48.736;9.332;2023-07-20T00:42:16;2.27;;;2.07;;
20649;SDS011;10484;48.736;9.332;2023-07-20T00:44:41;1.73;;;1.63;;
20649;SDS011;10484;48.736;9.332;2023-07-20T00:47:07;2.07;;;1.87;;
20649;SDS011;10484;48.736;9.332;2023-07-20T00:49:33;1.80;;;1.70;;
20649;SDS011;10484;48.736;9.332;2023-07-20T00:52:00;3.53;;;2.33;;
20649;SDS011;10484;48.736;9.332;2023-07-20T00:54:28;5.20;;;2.10;;
20649;SDS011;10484;48.736;9.332;2023-07-20T00:56:54;2.07;;;1.77;;
20649;SDS011;10484;48.736;9.332;2023-07-20T00:59:20;4.53;;;1.97;;
20649;SDS011;10484;48.736;9.332;2023-07-20T01:01:46;2.80;;;1.77;;
20649;SDS011;10484;48.736;9.332;2023-07-20T01:04:12;3.53;;;2.03;;
20649;SDS011;10484;48.736;9.332;2023-07-20T01:09:07;3.60;;;2.30;;
20649;SDS011;10484;48.736;9.332;2023-07-20T01:11:39;4.30;;;2.13;;
20649;SDS011;10484;48.736;9.332;2023-07-20T01:14:08;3.77;;;2.43;;
20649;SDS011;10484;48.736;9.332;2023-07-20T01:16:34;2.03;;;1.90;;
20649;SDS011;10484;48.736;9.332;2023-07-20T01:18:59;2.63;;;2.43;;
20649;SDS011;10484;48.736;9.332;2023-07-20T01:21:31;1.90;;;1.70;;
20649;SDS011;10484;48.736;9.332;2023-07-20T01:24:24;2.60;;;2.20;;
20649;SDS011;10484;48.736;9.332;2023-07-20T01:32:29;2.67;;;1.70;;
20649;SDS011;10484;48.736;9.332;2023-07-20T01:34:56;2.40;;;2.00;;
20649;SDS011;10484;48.736;9.332;2023-07-20T01:37:23;2.47;;;2.27;;
20649;SDS011;10484;48.736;9.332;2023-07-20T01:39:53;2.00;;;1.80;;
20649;SDS011;10484;48.736;9.332;2023-07-20T01:42:22;2.57;;;2.20;;
20649;SDS011;10484;48.736;9.332;2023-07-20T01:44:52;2.33;;;2.13;;
20649;SDS011;10484;48.736;9.332;2023-07-20T01:47:18;2.30;;;2.00;;
20649;SDS011;10484;48.736;9.332;2023-07-20T01:49:44;2.30;;;2.00;;
20649;SDS011;10484;48.736;9.332;2023-07-20T01:52:10;4.13;;;2.37;;
20649;SDS011;10484;48.736;9.332;2023-07-20T01:54:35;3.60;;;2.00;;
20649;SDS011;10484;48.736;9.332;2023-07-20T01:57:01;3.03;;;2.30;;
20649;SDS011;10484;48.736;9.332;2023-07-20T01:59:27;4.40;;;2.33;;
20649;SDS011;10484;48.736;9.332;2023-07-20T02:01:52;2.70;;;2.00;;
20649;SDS011;10484;48.736;9.332;2023-07-20T02:04:18;2.90;;;2.40;;
20649;SDS011;10484;48.736;9.332;2023-07-20T02:06:43;2.17;;;1.70;;
20649;SDS011;10484;48.736;9.332;2023-07-20T02:09:09;3.37;;;2.27;;
20649;SDS011;10484;48.736;9.332;2023-07-20T02:11:34;2.20;;;2.00;;
20649;SDS011;10484;48.736;9.332;2023-07-20T02:14:00;2.30;;;2.00;;
20649;SDS011;10484;48.736;9.332;2023-07-20T02:16:26;2.43;;;2.00;;
20649;SDS011;10484;48.736;9.332;2023-07-20T02:18:52;3.20;;;2.50;;
20649;SDS011;10484;48.736;9.332;2023-07-20T02:21:18;2.47;;;2.27;;
20649;SDS011;10484;48.736;9.332;2023-07-20T02:23:43;2.87;;;2.37;;
20649;SDS011;10484;48.736;9.332;2023-07-20T02:26:09;2.83;;;2.47;;
20649;SDS011;10484;48.736;9.332;2023-07-20T02:28:34;2.60;;;2.40;;
20649;SDS011;10484;48.736;9.332;2023-07-20T02:31:00;3.40;;;2.43;;
20649;SDS011;10484;48.736;9.332;2023-07-20T02:33:26;4.13;;;2.63;;
20649;SDS011;10484;48.736;9.332;2023-07-20T02:35:51;2.47;;;2.27;;
20649;SDS011;10484;48.736;9.332;2023-07-20T02:38:17;3.10;;;2.30;;
20649;SDS011;10484;48.736;9.332;2023-07-20T02:40:43;3.30;;;2.40;;
20649;SDS011;10484;48.736;9.332;2023-07-20T02:43:08;3.83;;;2.20;;
20649;SDS011;10484;48.736;9.332;2023-07-20T02:45:35;3.00;;;2.43;;
20649;SDS011;10484;48.736;9.332;2023-07-20T02:48:04;2.90;;;2.10;;
20649;SDS011;10484;48.736;9.332;2023-07-20T02:50:33;3.97;;;2.20;;
20649;SDS011;10484;48.736;9.332;2023-07-20T02:52:59;3.70;;;2.73;;
20649;SDS011;10484;48.736;9.332;2023-07-20T02:55:25;4.33;;;2.40;;
20649;SDS011;10484;48.736;9.332;2023-07-20T02:57:50;2.23;;;1.87;;
20649;SDS011;10484;48.736;9.332;2023-07-20T03:00:16;2.50;;;2.30;;
20649;SDS011;10484;48.736;9.332;2023-07-20T03:02:44;2.53;;;2.10;;
20649;SDS011;10484;48.736;9.332;2023-07-20T03:05:12;3.00;;;2.30;;
20649;SDS011;10484;48.736;9.332;2023-07-20T03:07:41;2.40;;;2.20;;
20649;SDS011;10484;48.736;9.332;2023-07-20T03:10:08;2.67;;;2.20;;
20649;SDS011;10484;48.736;9.332;2023-07-20T03:12:34;3.60;;;2.43;;
20649;SDS011;10484;48.736;9.332;2023-07-20T03:15:03;2.77;;;2.40;;
20649;SDS011;10484;48.736;9.332;2023-07-20T03:17:29;2.60;;;2.40;;
20649;SDS011;10484;48.736;9.332;2023-07-20T03:19:55;2.30;;;2.10;;
20649;SDS011;10484;48.736;9.332;2023-07-20T03:22:21;3.73;;;3.00;;
20649;SDS011;10484;48.736;9.332;2023-07-20T03:24:47;2.57;;;2.10;;
20649;SDS011;10484;48.736;9.332;2023-07-20T03:27:12;2.40;;;2.20;;
20649;SDS011;10484;48.736;9.332;2023-07-20T03:29:38;3.80;;;2.30;;
20649;SDS011;10484;48.736;9.332;2023-07-20T03:32:04;2.13;;;2.00;;
20649;SDS011;10484;48.736;9.332;2023-07-20T03:34:30;2.87;;;2.50;;
20649;SDS011;10484;48.736;9.332;2023-07-20T03:36:56;3.00;;;2.37;;
20649;SDS011;10484;48.736;9.332;2023-07-20T03:39:22;2.93;;;2.63;;
20649;SDS011;10484;48.736;9.332;2023-07-20T03:41:47;3.70;;;2.50;;
20649;SDS011;10484;48.736;9.332;2023-07-20T03:44:13;2.33;;;2.07;;
20649;SDS011;10484;48.736;9.332;2023-07-20T03:46:39;3.97;;;2.63;;
20649;SDS011;10484;48.736;9.332;2023-07-20T03:49:04;3.50;;;2.63;;
20649;SDS011;10484;48.736;9.332;2023-07-20T03:51:31;2.47;;;2.27;;
20649;SDS011;10484;48.736;9.332;2023-07-20T03:53:57;2.67;;;2.47;;
20649;SDS011;10484;48.736;9.332;2023-07-20T03:56:22;2.80;;;2.10;;
20649;SDS011;10484;48.736;9.332;2023-07-20T03:58:49;3.30;;;2.77;;
20649;SDS011;10484;48.736;9.332;2023-07-20T04:01:14;3.27;;;2.10;;
20649;SDS011;10484;48.736;9.332;2023-07-20T04:03:41;2.47;;;2.27;;
20649;SDS011;10484;48.736;9.332;2023-07-20T04:06:08;2.30;;;2.10;;
20649;SDS011;10484;48.736;9.332;2023-07-20T04:08:33;5.27;;;2.50;;
20649;SDS011;10484;48.736;9.332;2023-07-20T04:11:01;2.70;;;2.43;;
20649;SDS011;10484;48.736;9.332;2023-07-20T04:13:27;3.10;;;2.30;;
20649;SDS011;10484;48.736;9.332;2023-07-20T04:15:53;2.73;;;2.13;;
20649;SDS011;10484;48.736;9.332;2023-07-20T04:18:18;3.03;;;2.50;;
20649;SDS011;10484;48.736;9.332;2023-07-20T04:20:44;2.73;;;2.50;;
20649;SDS011;10484;48.736;9.332;2023-07-20T04:23:10;3.13;;;2.77;;
20649;SDS011;10484;48.736;9.332;2023-07-20T04:25:36;2.80;;;2.50;;
20649;SDS011;10484;48.736;9.332;2023-07-20T04:28:07;3.40;;;2.47;;
20649;SDS011;10484;48.736;9.332;2023-07-20T04:30:35;3.00;;;2.70;;
20649;SDS011;10484;48.736;9.332;2023-07-20T04:33:02;2.70;;;2.50;;
20649;SDS011;10484;48.736;9.332;2023-07-20T04:35:44;2.60;;;2.40;;
20649;SDS011;10484;48.736;9.332;2023-07-20T04:38:15;2.33;;;2.10;;
20649;SDS011;10484;48.736;9.332;2023-07-20T04:40:43;2.90;;;2.57;;
20649;SDS011;10484;48.736;9.332;2023-07-20T04:43:09;3.00;;;2.40;;
20649;SDS011;10484;48.736;9.332;2023-07-20T04:45:34;2.90;;;2.57;;
20649;SDS011;10484;48.736;9.332;2023-07-20T04:48:00;2.90;;;2.57;;
20649;SDS011;10484;48.736;9.332;2023-07-20T04:50:25;3.30;;;2.40;;
20649;SDS011;10484;48.736;9.332;2023-07-20T04:52:51;2.37;;;2.13;;
20649;SDS011;10484;48.736;9.332;2023-07-20T04:55:18;3.53;;;2.80;;
20649;SDS011;10484;48.736;9.332;2023-07-20T04:57:43;3.00;;;2.47;;
20649;SDS011;10484;48.736;9.332;2023-07-20T05:00:09;4.17;;;2.33;;
20649;SDS011;10484;48.736;9.332;2023-07-20T05:02:36;2.77;;;2.57;;
20649;SDS011;10484;48.736;9.332;2023-07-20T05:05:03;2.73;;;2.53;;
20649;SDS011;10484;48.736;9.332;2023-07-20T05:07:30;2.90;;;2.43;;
20649;SDS011;10484;48.736;9.332;2023-07-20T05:09:56;3.20;;;2.60;;
20649;SDS011;10484;48.736;9.332;2023-07-20T05:12:22;4.20;;;2.40;;
20649;SDS011;10484;48.736;9.332;2023-07-20T05:14:48;3.43;;;2.77;;
20649;SDS011;10484;48.736;9.332;2023-07-20T05:17:13;2.77;;;2.03;;
20649;SDS011;10484;48.736;9.332;2023-07-20T05:19:39;3.10;;;2.50;;
20649;SDS011;10484;48.736;9.332;2023-07-20T05:22:05;3.20;;;2.90;;
20649;SDS011;10484;48.736;9.332;2023-07-20T05:24:30;2.73;;;2.13;;
20649;SDS011;10484;48.736;9.332;2023-07-20T05:26:57;2.50;;;2.30;;
20649;SDS011;10484;48.736;9.332;2023-07-20T05:29:23;2.40;;;2.20;;
20649;SDS011;10484;48.736;9.332;2023-07-20T05:31:49;3.10;;;2.07;;
20649;SDS011;10484;48.736;9.332;2023-07-20T05:34:14;2.67;;;2.40;;
20649;SDS011;10484;48.736;9.332;2023-07-20T05:36:40;4.70;;;2.57;;
20649;SDS011;10484;48.736;9.332;2023-07-20T05:39:06;2.67;;;2.47;;
20649;SDS011;10484;48.736;9.332;2023-07-20T05:41:31;1.70;;;1.60;;
20649;SDS011;10484;48.736;9.332;2023-07-20T05:43:57;2.80;;;2.60;;
20649;SDS011;10484;48.736;9.332;2023-07-20T05:46:22;4.80;;;2.10;;
20649;SDS011;10484;48.736;9.332;2023-07-20T05:48:49;2.50;;;2.30;;
20649;SDS011;10484;48.736;9.332;2023-07-20T05:51:15;3.33;;;2.57;;
20649;SDS011;10484;48.736;9.332;2023-07-20T05:53:40;3.40;;;2.30;;
20649;SDS011;10484;48.736;9.332;2023-07-20T05:56:06;3.57;;;2.77;;
20649;SDS011;10484;48.736;9.332;2023-07-20T05:58:35;3.10;;;2.30;;
20649;SDS011;10484;48.736;9.332;2023-07-20T06:01:01;3.60;;;2.57;;
20649;SDS011;10484;48.736;9.332;2023-07-20T06:03:28;2.67;;;2.47;;
20649;SDS011;10484;48.736;9.332;2023-07-20T06:06:00;3.00;;;2.17;;
20649;SDS011;10484;48.736;9.332;2023-07-20T06:08:30;2.27;;;2.03;;
20649;SDS011;10484;48.736;9.332;2023-07-20T06:10:56;5.77;;;2.70;;
20649;SDS011;10484;48.736;9.332;2023-07-20T06:13:22;2.73;;;1.97;;
20649;SDS011;10484;48.736;9.332;2023-07-20T06:15:48;2.27;;;2.07;;
20649;SDS011;10484;48.736;9.332;2023-07-20T06:18:14;2.60;;;2.30;;
20649;SDS011;10484;48.736;9.332;2023-07-20T06:20:40;3.37;;;2.53;;
20649;SDS011;10484;48.736;9.332;2023-07-20T06:23:06;3.17;;;2.40;;
20649;SDS011;10484;48.736;9.332;2023-07-20T06:25:31;2.90;;;2.30;;
20649;SDS011;10484;48.736;9.332;2023-07-20T06:27:57;2.80;;;2.20;;
20649;SDS011;10484;48.736;9.332;2023-07-20T06:30:22;2.50;;;2.30;;
20649;SDS011;10484;48.736;9.332;2023-07-20T06:32:48;2.27;;;2.00;;
20649;SDS011;10484;48.736;9.332;2023-07-20T06:35:15;2.60;;;2.40;;
20649;SDS011;10484;48.736;9.332;2023-07-20T06:37:41;3.73;;;2.13;;
20649;SDS011;10484;48.736;9.332;2023-07-20T06:40:07;2.60;;;2.20;;
20649;SDS011;10484;48.736;9.332;2023-07-20T06:42:34;3.90;;;2.70;;
20649;SDS011;10484;48.736;9.332;2023-07-20T06:45:00;3.00;;;2.23;;
20649;SDS011;10484;48.736;9.332;2023-07-20T06:47:25;3.97;;;2.40;;
20649;SDS011;10484;48.736;9.332;2023-07-20T06:49:51;2.60;;;2.03;;
20649;SDS011;10484;48.736;9.332;2023-07-20T06:52:17;4.47;;;2.27;;
20649;SDS011;10484;48.736;9.332;2023-07-20T06:54:43;1.93;;;1.70;;
20649;SDS011;10484;48.736;9.332;2023-07-20T06:57:08;2.20;;;1.93;;
20649;SDS011;10484;48.736;9.332;2023-07-20T06:59:34;2.97;;;1.70;;
20649;SDS011;10484;48.736;9.332;2023-07-20T07:01:59;2.30;;;1.73;;
20649;SDS011;10484;48.736;9.332;2023-07-20T07:04:25;2.00;;;1.80;;
20649;SDS011;10484;48.736;9.332;2023-07-20T07:06:51;2.73;;;2.03;;
20649;SDS011;10484;48.736;9.332;2023-07-20T07:09:17;2.97;;;2.10;;
20649;SDS011;10484;48.736;9.332;2023-07-20T07:11:43;2.40;;;1.70;;
20649;SDS011;10484;48.736;9.332;2023-07-20T07:14:09;4.90;;;2.73;;
20649;SDS011;10484;48.736;9.332;2023-07-20T07:16:35;2.13;;;1.70;;
20649;SDS011;10484;48.736;9.332;2023-07-20T07:19:00;2.70;;;1.80;;
20649;SDS011;10484;48.736;9.332;2023-07-20T07:21:26;3.40;;;2.00;;
20649;SDS011;10484;48.736;9.332;2023-07-20T07:23:52;3.40;;;1.97;;
20649;SDS011;10484;48.736;9.332;2023-07-20T07:26:22;3.20;;;2.17;;
20649;SDS011;10484;48.736;9.332;2023-07-20T07:28:48;2.00;;;1.90;;
20649;SDS011;10484;48.736;9.332;2023-07-20T07:31:14;2.00;;;1.60;;
20649;SDS011;10484;48.736;9.332;2023-07-20T07:33:40;2.73;;;2.30;;
20649;SDS011;10484;48.736;9.332;2023-07-20T07:36:06;2.40;;;2.10;;
20649;SDS011;10484;48.736;9.332;2023-07-20T07:38:31;3.93;;;1.97;;
20649;SDS011;10484;48.736;9.332;2023-07-20T07:40:57;2.50;;;2.00;;
20649;SDS011;10484;48.736;9.332;2023-07-20T07:43:23;3.50;;;2.10;;
20649;SDS011;10484;48.736;9.332;2023-07-20T07:45:49;4.80;;;2.40;;
20649;SDS011;10484;48.736;9.332;2023-07-20T07:48:14;2.60;;;2.40;;
20649;SDS011;10484;48.736;9.332;2023-07-20T07:50:40;3.40;;;1.83;;
20649;SDS011;10484;48.736;9.332;2023-07-20T07:53:07;2.37;;;1.97;;
20649;SDS011;10484;48.736;9.332;2023-07-20T07:55:33;3.20;;;2.23;;
20649;SDS011;10484;48.736;9.332;2023-07-20T07:58:00;3.07;;;2.37;;
20649;SDS011;10484;48.736;9.332;2023-07-20T08:00:26;2.40;;;2.20;;
20649;SDS011;10484;48.736;9.332;2023-07-20T08:02:51;2.30;;;2.10;;
20649;SDS011;10484;48.736;9.332;2023-07-20T08:05:17;3.20;;;2.37;;
20649;SDS011;10484;48.736;9.332;2023-07-20T08:07:42;2.70;;;2.47;;
20649;SDS011;10484;48.736;9.332;2023-07-20T08:10:08;2.53;;;2.27;;
20649;SDS011;10484;48.736;9.332;2023-07-20T08:12:34;2.80;;;2.53;;
20649;SDS011;10484;48.736;9.332;2023-07-20T08:15:00;2.50;;;2.13;;
20649;SDS011;10484;48.736;9.332;2023-07-20T08:17:25;3.00;;;2.50;;
20649;SDS011;10484;48.736;9.332;2023-07-20T08:19:51;3.33;;;2.10;;
20649;SDS011;10484;48.736;9.332;2023-07-20T08:22:17;3.20;;;2.03;;
20649;SDS011;10484;48.736;9.332;2023-07-20T08:24:42;2.80;;;2.57;;
20649;SDS011;10484;48.736;9.332;2023-07-20T08:27:08;2.67;;;2.40;;
20649;SDS011;10484;48.736;9.332;2023-07-20T08:29:34;2.83;;;2.10;;
20649;SDS011;10484;48.736;9.332;2023-07-20T08:32:01;3.23;;;1.93;;
20649;SDS011;10484;48.736;9.332;2023-07-20T08:34:27;2.17;;;2.00;;
20649;SDS011;10484;48.736;9.332;2023-07-20T08:36:53;3.20;;;2.20;;
20649;SDS011;10484;48.736;9.332;2023-07-20T08:39:18;2.53;;;1.90;;
20649;SDS011;10484;48.736;9.332;2023-07-20T08:41:44;3.20;;;2.90;;
20649;SDS011;10484;48.736;9.332;2023-07-20T08:44:10;4.07;;;2.27;;
20649;SDS011;10484;48.736;9.332;2023-07-20T08:46:36;2.50;;;2.30;;
20649;SDS011;10484;48.736;9.332;2023-07-20T08:49:04;2.13;;;1.87;;
20649;SDS011;10484;48.736;9.332;2023-07-20T08:51:30;1.80;;;1.70;;
20649;SDS011;10484;48.736;9.332;2023-07-20T08:53:57;4.40;;;2.20;;
20649;SDS011;10484;48.736;9.332;2023-07-20T08:56:23;1.97;;;1.63;;
20649;SDS011;10484;48.736;9.332;2023-07-20T08:58:54;3.53;;;2.40;;
20649;SDS011;10484;48.736;9.332;2023-07-20T09:01:21;2.30;;;2.10;;
20649;SDS011;10484;48.736;9.332;2023-07-20T09:03:47;5.10;;;2.90;;
20649;SDS011;10484;48.736;9.332;2023-07-20T09:06:14;2.13;;;1.93;;
20649;SDS011;10484;48.736;9.332;2023-07-20T09:08:40;7.13;;;2.63;;
20649;SDS011;10484;48.736;9.332;2023-07-20T09:11:06;4.37;;;2.30;;
20649;SDS011;10484;48.736;9.332;2023-07-20T09:13:35;3.67;;;1.97;;
20649;SDS011;10484;48.736;9.332;2023-07-20T09:16:02;1.77;;;1.60;;
20649;SDS011;10484;48.736;9.332;2023-07-20T09:18:30;2.30;;;2.10;;
20649;SDS011;10484;48.736;9.332;2023-07-20T09:21:03;2.50;;;1.80;;
20649;SDS011;10484;48.736;9.332;2023-07-20T09:23:37;2.70;;;2.10;;
20649;SDS011;10484;48.736;9.332;2023-07-20T09:26:12;1.77;;;1.67;;
20649;SDS011;10484;48.736;9.332;2023-07-20T09:28:42;2.03;;;1.87;;
20649;SDS011;10484;48.736;9.332;2023-07-20T09:31:15;2.63;;;1.90;;
20649;SDS011;10484;48.736;9.332;2023-07-20T09:33:42;2.83;;;2.00;;
20649;SDS011;10484;48.736;9.332;2023-07-20T09:36:09;3.20;;;2.03;;
20649;SDS011;10484;48.736;9.332;2023-07-20T09:38:36;2.90;;;1.90;;
20649;SDS011;10484;48.736;9.332;2023-07-20T09:41:04;2.70;;;2.00;;
20649;SDS011;10484;48.736;9.332;2023-07-20T09:43:31;4.47;;;2.00;;
20649;SDS011;10484;48.736;9.332;2023-07-20T09:45:58;1.83;;;1.70;;
20649;SDS011;10484;48.736;9.332;2023-07-20T09:48:24;2.33;;;2.23;;
20649;SDS011;10484;48.736;9.332;2023-07-20T09:50:51;3.13;;;2.03;;
20649;SDS011;10484;48.736;9.332;2023-07-20T09:53:18;5.50;;;1.90;;
20649;SDS011;10484;48.736;9.332;2023-07-20T09:55:44;2.77;;;2.57;;
20649;SDS011;10484;48.736;9.332;2023-07-20T09:58:11;1.77;;;1.67;;
20649;SDS011;10484;48.736;9.332;2023-07-20T10:00:37;2.37;;;2.10;;
20649;SDS011;10484;48.736;9.332;2023-07-20T10:03:03;1.90;;;1.80;;
20649;SDS011;10484;48.736;9.332;2023-07-20T10:05:34;2.83;;;1.70;;
20649;SDS011;10484;48.736;9.332;2023-07-20T10:08:03;2.50;;;1.60;;
20649;SDS011;10484;48.736;9.332;2023-07-20T10:10:33;2.60;;;1.80;;
20649;SDS011;10484;48.736;9.332;2023-07-20T10:13:00;1.70;;;1.60;;
20649;SDS011;10484;48.736;9.332;2023-07-20T10:15:36;3.37;;;2.00;;
20649;SDS011;10484;48.736;9.332;2023-07-20T10:20:45;2.17;;;1.97;;
20649;SDS011;10484;48.736;9.332;2023-07-20T10:23:11;1.70;;;1.60;;
20649;SDS011;10484;48.736;9.332;2023-07-20T10:25:37;1.80;;;1.70;;
20649;SDS011;10484;48.736;9.332;2023-07-20T10:28:06;2.20;;;2.00;;
20649;SDS011;10484;48.736;9.332;2023-07-20T10:30:35;2.70;;;1.77;;
20649;SDS011;10484;48.736;9.332;2023-07-20T10:33:04;2.17;;;1.63;;
20649;SDS011;10484;48.736;9.332;2023-07-20T10:35:30;1.80;;;1.53;;
20649;SDS011;10484;48.736;9.332;2023-07-20T10:38:15;2.97;;;2.17;;
20649;SDS011;10484;48.736;9.332;2023-07-20T10:40:40;2.20;;;2.00;;
20649;SDS011;10484;48.736;9.332;2023-07-20T10:43:07;1.73;;;1.53;;
20649;SDS011;10484;48.736;9.332;2023-07-20T10:45:39;1.73;;;1.60;;
20649;SDS011;10484;48.736;9.332;2023-07-20T10:48:15;2.27;;;2.07;;
20649;SDS011;10484;48.736;9.332;2023-07-20T10:53:35;1.83;;;1.60;;
20649;SDS011;10484;48.736;9.332;2023-07-20T10:56:13;3.20;;;2.30;;
20649;SDS011;10484;48.736;9.332;2023-07-20T10:58:40;2.23;;;1.73;;
20649;SDS011;10484;48.736;9.332;2023-07-20T11:01:07;1.37;;;1.27;;
20649;SDS011;10484;48.736;9.332;2023-07-20T11:03:37;3.10;;;1.80;;
20649;SDS011;10484;48.736;9.332;2023-07-20T11:08:56;1.50;;;1.40;;
20649;SDS011;10484;48.736;9.332;2023-07-20T11:11:32;1.40;;;1.30;;
20649;SDS011;10484;48.736;9.332;2023-07-20T11:14:01;1.70;;;1.60;;
20649;SDS011;10484;48.736;9.332;2023-07-20T11:16:46;2.43;;;1.43;;
20649;SDS011;10484;48.736;9.332;2023-07-20T11:19:17;2.00;;;1.53;;
20649;SDS011;10484;48.736;9.332;2023-07-20T11:21:43;1.60;;;1.50;;
20649;SDS011;10484;48.736;9.332;2023-07-20T11:24:15;1.73;;;1.40;;
20649;SDS011;10484;48.736;9.332;2023-07-20T11:26:41;1.50;;;1.40;;
20649;SDS011;10484;48.736;9.332;2023-07-20T11:29:08;3.33;;;1.63;;
20649;SDS011;10484;48.736;9.332;2023-07-20T11:31:37;4.13;;;1.60;;
20649;SDS011;10484;48.736;9.332;2023-07-20T11:34:03;2.27;;;1.67;;
20649;SDS011;10484;48.736;9.332;2023-07-20T11:36:29;2.20;;;1.17;;
20649;SDS011;10484;48.736;9.332;2023-07-20T11:38:55;1.50;;;1.30;;
20649;SDS011;10484;48.736;9.332;2023-07-20T11:41:21;2.10;;;1.10;;
20649;SDS011;10484;48.736;9.332;2023-07-20T11:43:47;1.47;;;1.37;;
20649;SDS011;10484;48.736;9.332;2023-07-20T11:46:12;1.50;;;1.07;;
20649;SDS011;10484;48.736;9.332;2023-07-20T11:48:38;3.40;;;1.40;;
20649;SDS011;10484;48.736;9.332;2023-07-20T11:51:05;2.03;;;1.60;;
20649;SDS011;10484;48.736;9.332;2023-07-20T11:53:30;1.70;;;1.50;;
20649;SDS011;10484;48.736;9.332;2023-07-20T11:55:58;1.60;;;1.50;;
20649;SDS011;10484;48.736;9.332;2023-07-20T11:58:24;4.43;;;1.60;;
20649;SDS011;10484;48.736;9.332;2023-07-20T12:00:52;2.63;;;1.30;;
20649;SDS011;10484;48.736;9.332;2023-07-20T12:03:19;2.77;;;1.20;;
20649;SDS011;10484;48.736;9.332;2023-07-20T12:05:45;1.50;;;1.00;;
20649;SDS011;10484;48.736;9.332;2023-07-20T12:08:11;1.90;;;1.37;;
20649;SDS011;10484;48.736;9.332;2023-07-20T12:10:38;1.30;;;1.00;;
20649;SDS011;10484;48.736;9.332;2023-07-20T12:13:09;2.07;;;1.27;;
20649;SDS011;10484;48.736;9.332;2023-07-20T12:15:36;2.80;;;1.40;;
20649;SDS011;10484;48.736;9.332;2023-07-20T12:18:02;1.50;;;1.30;;
20649;SDS011;10484;48.736;9.332;2023-07-20T12:22:56;1.63;;;1.20;;
20649;SDS011;10484;48.736;9.332;2023-07-20T12:25:59;1.30;;;1.20;;
20649;SDS011;10484;48.736;9.332;2023-07-20T12:28:20;2.00;;;1.13;;
20649;SDS011;10484;48.736;9.332;2023-07-20T12:30:46;1.73;;;1.20;;
20649;SDS011;10484;48.736;9.332;2023-07-20T12:33:13;1.87;;;1.67;;
20649;SDS011;10484;48.736;9.332;2023-07-20T12:35:42;1.47;;;1.10;;
20649;SDS011;10484;48.736;9.332;2023-07-20T12:38:11;1.37;;;1.27;;
20649;SDS011;10484;48.736;9.332;2023-07-20T12:40:36;1.47;;;1.37;;
20649;SDS011;10484;48.736;9.332;2023-07-20T12:43:02;1.30;;;1.20;;
20649;SDS011;10484;48.736;9.332;2023-07-20T12:45:28;1.77;;;1.40;;
20649;SDS011;10484;48.736;9.332;2023-07-20T12:47:54;1.30;;;1.20;;
20649;SDS011;10484;48.736;9.332;2023-07-20T12:50:20;1.70;;;1.40;;
20649;SDS011;10484;48.736;9.332;2023-07-20T12:52:45;2.03;;;1.00;;
20649;SDS011;10484;48.736;9.332;2023-07-20T12:55:11;1.27;;;1.17;;
20649;SDS011;10484;48.736;9.332;2023-07-20T12:57:37;1.97;;;1.30;;
20649;SDS011;10484;48.736;9.332;2023-07-20T13:00:03;1.40;;;1.20;;
20649;SDS011;10484;48.736;9.332;2023-07-20T13:02:31;1.23;;;1.13;;
20649;SDS011;10484;48.736;9.332;2023-07-20T13:04:57;1.60;;;1.37;;
20649;SDS011;10484;48.736;9.332;2023-07-20T13:07:30;1.90;;;1.10;;
20649;SDS011;10484;48.736;9.332;2023-07-20T13:09:57;1.30;;;1.00;;
20649;SDS011;10484;48.736;9.332;2023-07-20T13:12:24;2.37;;;1.20;;
20649;SDS011;10484;48.736;9.332;2023-07-20T13:14:49;1.50;;;1.20;;
20649;SDS011;10484;48.736;9.332;2023-07-20T13:17:15;1.60;;;1.33;;
20649;SDS011;10484;48.736;9.332;2023-07-20T13:19:40;4.40;;;1.47;;
20649;SDS011;10484;48.736;9.332;2023-07-20T13:22:06;2.20;;;1.40;;
20649;SDS011;10484;48.736;9.332;2023-07-20T13:24:32;1.53;;;1.40;;
20649;SDS011;10484;48.736;9.332;2023-07-20T13:26:57;2.90;;;1.27;;
20649;SDS011;10484;48.736;9.332;2023-07-20T13:29:23;1.27;;;1.17;;
20649;SDS011;10484;48.736;9.332;2023-07-20T13:31:50;1.50;;;1.40;;
20649;SDS011;10484;48.736;9.332;2023-07-20T13:34:15;1.87;;;1.60;;
20649;SDS011;10484;48.736;9.332;2023-07-20T13:36:41;1.57;;;1.20;;
20649;SDS011;10484;48.736;9.332;2023-07-20T13:39:06;2.40;;;1.40;;
20649;SDS011;10484;48.736;9.332;2023-07-20T13:41:33;1.40;;;1.30;;
20649;SDS011;10484;48.736;9.332;2023-07-20T13:43:59;1.27;;;1.13;;
20649;SDS011;10484;48.736;9.332;2023-07-20T13:46:25;1.70;;;1.40;;
20649;SDS011;10484;48.736;9.332;2023-07-20T13:48:50;0.90;;;0.80;;
20649;SDS011;10484;48.736;9.332;2023-07-20T13:51:16;1.83;;;1.73;;
20649;SDS011;10484;48.736;9.332;2023-07-20T13:53:42;1.33;;;1.10;;
20649;SDS011;10484;48.736;9.332;2023-07-20T13:56:10;1.50;;;1.40;;
20649;SDS011;10484;48.736;9.332;2023-07-20T13:58:35;2.67;;;1.90;;
20649;SDS011;10484;48.736;9.332;2023-07-20T14:01:01;1.80;;;1.67;;
20649;SDS011;10484;48.736;9.332;2023-07-20T14:03:27;2.37;;;1.40;;
20649;SDS011;10484;48.736;9.332;2023-07-20T14:05:53;1.63;;;1.53;;
20649;SDS011;10484;48.736;9.332;2023-07-20T14:08:18;1.20;;;1.10;;
20649;SDS011;10484;48.736;9.332;2023-07-20T14:10:44;3.13;;;1.67;;
20649;SDS011;10484;48.736;9.332;2023-07-20T14:13:10;1.37;;;1.27;;
20649;SDS011;10484;48.736;9.332;2023-07-20T14:15:35;3.20;;;1.30;;
20649;SDS011;10484;48.736;9.332;2023-07-20T14:18:01;2.20;;;1.00;;
20649;SDS011;10484;48.736;9.332;2023-07-20T14:20:26;1.17;;;1.00;;
20649;SDS011;10484;48.736;9.332;2023-07-20T14:22:52;1.10;;;1.00;;
20649;SDS011;10484;48.736;9.332;2023-07-20T14:25:17;3.83;;;1.40;;
20649;SDS011;10484;48.736;9.332;2023-07-20T14:27:43;1.10;;;1.10;;
20649;SDS011;10484;48.736;9.332;2023-07-20T14:30:09;1.73;;;1.20;;
20649;SDS011;10484;48.736;9.332;2023-07-20T14:32:35;1.30;;;1.13;;
20649;SDS011;10484;48.736;9.332;2023-07-20T14:35:00;1.07;;;0.97;;
20649;SDS011;10484;48.736;9.332;2023-07-20T14:37:26;1.50;;;1.00;;
20649;SDS011;10484;48.736;9.332;2023-07-20T14:39:51;1.70;;;1.20;;
20649;SDS011;10484;48.736;9.332;2023-07-20T14:42:17;1.27;;;1.17;;
20649;SDS011;10484;48.736;9.332;2023-07-20T14:44:43;1.63;;;1.50;;
20649;SDS011;10484;48.736;9.332;2023-07-20T14:47:09;1.70;;;1.30;;
20649;SDS011;10484;48.736;9.332;2023-07-20T14:49:35;1.50;;;1.40;;
20649;SDS011;10484;48.736;9.332;2023-07-20T14:52:00;2.57;;;1.53;;
20649;SDS011;10484;48.736;9.332;2023-07-20T14:54:27;2.07;;;1.13;;
20649;SDS011;10484;48.736;9.332;2023-07-20T14:56:52;1.10;;;1.00;;
20649;SDS011;10484;48.736;9.332;2023-07-20T14:59:18;2.17;;;1.13;;
20649;SDS011;10484;48.736;9.332;2023-07-20T15:01:44;1.30;;;1.20;;
20649;SDS011;10484;48.736;9.332;2023-07-20T15:04:15;1.07;;;0.97;;